createdAt,value
2019-04-20T00:00:19.289Z,0
2019-04-20T00:01:11.452Z,0
2019-04-20T00:02:25.872Z,0
2019-04-20T00:03:10.066Z,0
2019-04-20T00:04:09.800Z,0
2019-04-20T00:05:07.413Z,0
2019-04-20T00:06:06.928Z,0
2019-04-20T00:07:08.004Z,0
2019-04-20T00:08:33.521Z,0
2019-04-20T00:09:39.727Z,0
2019-04-20T00:10:30.216Z,0
2019-04-20T00:11:56.414Z,0
2019-04-20T00:13:15.810Z,0
2019-04-20T00:14:17.865Z,0
2019-04-20T00:14:45.936Z,0
2019-04-20T00:15:30.768Z,0
2019-04-20T00:16:32.019Z,0
2019-04-20T00:17:31.219Z,0
2019-04-20T00:18:55.204Z,0
2019-04-20T00:20:04.596Z,0
2019-04-20T00:20:44.211Z,0
2019-04-20T00:21:34.354Z,0
2019-04-20T00:22:56.850Z,0
2019-04-20T00:23:53.056Z,0
2019-04-20T00:24:49.551Z,0
2019-04-20T00:26:27.256Z,0
2019-04-20T00:29:00.001Z,0
2019-04-20T00:31:05.340Z,0
2019-04-20T00:32:26.242Z,0
2019-04-20T00:34:03.644Z,0
2019-04-20T00:34:48.987Z,0
2019-04-20T00:35:19.244Z,0
2019-04-20T00:36:22.090Z,0
2019-04-20T00:37:21.112Z,0
2019-04-20T00:38:21.463Z,0
2019-04-20T00:39:28.284Z,0
2019-04-20T00:40:17.765Z,0
2019-04-20T00:41:29.589Z,0
2019-04-20T00:42:52.361Z,0
2019-04-20T00:43:41.765Z,0
2019-04-20T00:44:56.153Z,0
2019-04-20T00:45:53.541Z,0
2019-04-20T00:47:30.296Z,0
2019-04-20T00:48:50.373Z,0
2019-04-20T00:50:34.028Z,0
2019-04-20T00:52:53.869Z,0
2019-04-20T00:53:48.894Z,0
2019-04-20T00:54:13.494Z,0
2019-04-20T00:55:08.260Z,0
2019-04-20T00:56:08.142Z,0
2019-04-20T00:58:09.238Z,0
2019-04-20T00:59:27.385Z,0
2019-04-20T01:01:51.716Z,0
2019-04-20T01:03:33.694Z,0
2019-04-20T01:05:46.186Z,0
2019-04-20T01:07:29.654Z,0
2019-04-20T01:08:09.999Z,0
2019-04-20T01:08:44.930Z,0
2019-04-20T01:09:43.957Z,0
2019-04-20T01:11:04.139Z,0
2019-04-20T01:12:03.130Z,0
2019-04-20T01:13:06.482Z,0
2019-04-20T01:14:17.504Z,0
2019-04-20T01:15:24.279Z,0
2019-04-20T01:16:35.266Z,0
2019-04-20T01:17:16.475Z,0
2019-04-20T01:17:48.853Z,0
2019-04-20T01:18:49.755Z,0
2019-04-20T01:19:48.788Z,0
2019-04-20T01:20:47.811Z,0
2019-04-20T01:22:18.347Z,0
2019-04-20T01:23:24.154Z,0
2019-04-20T01:24:19.938Z,0
2019-04-20T01:25:09.516Z,0
2019-04-20T01:26:14.308Z,0
2019-04-20T01:27:23.610Z,0
2019-04-20T01:29:21.398Z,0
2019-04-20T01:30:31.917Z,0
2019-04-20T01:31:41.254Z,0
2019-04-20T01:33:27.766Z,0
2019-04-20T01:34:50.330Z,0
2019-04-20T01:36:50.211Z,0
2019-04-20T01:38:34.056Z,0
2019-04-20T01:39:49.049Z,0
2019-04-20T01:40:15.419Z,0
2019-04-20T01:41:03.609Z,0
2019-04-20T01:42:04.448Z,0
2019-04-20T01:43:05.564Z,0
2019-04-20T01:44:03.274Z,0
2019-04-20T01:45:32.781Z,0
2019-04-20T01:46:32.014Z,0
2019-04-20T01:47:16.997Z,0
2019-04-20T01:48:13.909Z,0
2019-04-20T01:49:27.404Z,0
2019-04-20T01:50:37.087Z,0
2019-04-20T01:51:52.335Z,0
2019-04-20T01:53:05.463Z,0
2019-04-20T01:54:45.156Z,0
2019-04-20T01:56:39.968Z,0
2019-04-20T01:57:54.423Z,0
2019-04-20T01:59:45.857Z,0
2019-04-20T02:00:43.863Z,0
2019-04-20T02:01:29.944Z,0
2019-04-20T02:02:27.778Z,0
2019-04-20T02:03:15.506Z,0
2019-04-20T02:04:24.700Z,0
2019-04-20T02:05:32.672Z,0
2019-04-20T02:06:28.255Z,0
2019-04-20T02:07:18.060Z,0
2019-04-20T02:08:19.561Z,0
2019-04-20T02:09:32.493Z,0
2019-04-20T02:10:30.841Z,0
2019-04-20T02:11:34.227Z,0
2019-04-20T02:12:34.517Z,0
2019-04-20T02:13:15.433Z,0
2019-04-20T02:14:28.517Z,0
2019-04-20T02:15:40.233Z,0
2019-04-20T02:16:47.936Z,0
2019-04-20T02:18:03.015Z,0
2019-04-20T02:19:37.575Z,0
2019-04-20T02:21:46.522Z,0
2019-04-20T02:23:30.399Z,0
2019-04-20T02:24:13.063Z,0
2019-04-20T02:24:46.713Z,0
2019-04-20T02:25:46.365Z,0
2019-04-20T02:26:47.139Z,0
2019-04-20T02:29:23.402Z,0
2019-04-20T02:32:54.964Z,0
2019-04-20T02:36:00.374Z,0
2019-04-20T02:40:25.041Z,0
2019-04-20T02:44:21.172Z,0
2019-04-20T02:47:45.294Z,0
2019-04-20T02:51:21.868Z,0
2019-04-20T02:54:18.354Z,0
2019-04-20T02:58:06.587Z,0
2019-04-20T03:01:26.541Z,0
2019-04-20T03:03:13.331Z,0
2019-04-20T03:04:08.331Z,0
2019-04-20T03:05:32.752Z,0
2019-04-20T03:07:14.757Z,0
2019-04-20T03:09:19.676Z,0
2019-04-20T03:11:52.605Z,0
2019-04-20T03:14:09.102Z,0
2019-04-20T03:16:10.590Z,0
2019-04-20T03:18:30.957Z,0
2019-04-20T03:20:21.988Z,0
2019-04-20T03:26:15.980Z,0
2019-04-20T03:28:23.403Z,0
2019-04-20T03:37:06.686Z,0
2019-04-20T03:39:17.522Z,0
2019-04-20T03:41:04.731Z,0
2019-04-20T03:41:59.142Z,0
2019-04-20T03:42:24.331Z,0
2019-04-20T03:43:22.149Z,0
2019-04-20T03:44:39.328Z,0
2019-04-20T03:45:51.443Z,0
2019-04-20T03:46:59.592Z,0
2019-04-20T03:48:33.265Z,0
2019-04-20T03:50:46.123Z,0
2019-04-20T03:53:08.237Z,0
2019-04-20T03:54:54.113Z,0
2019-04-20T03:57:12.144Z,0
2019-04-20T03:59:15.996Z,0
2019-04-20T04:01:35.664Z,0
2019-04-20T04:04:26.809Z,0
2019-04-20T04:06:17.426Z,0
2019-04-20T04:07:15.244Z,0
2019-04-20T04:08:34.330Z,0
2019-04-20T04:09:58.508Z,0
2019-04-20T04:11:43.024Z,0
2019-04-20T04:12:47.828Z,0
2019-04-20T04:13:03.459Z,0
2019-04-20T04:14:01.365Z,0
2019-04-20T04:15:00.414Z,0
2019-04-20T04:16:27.105Z,0
2019-04-20T04:17:26.836Z,0
2019-04-20T04:18:37.146Z,0
2019-04-20T04:19:49.078Z,0
2019-04-20T04:20:31.446Z,0
2019-04-20T04:22:03.830Z,0
2019-04-20T04:23:58.536Z,0
2019-04-20T04:25:28.425Z,0
2019-04-20T04:27:12.367Z,0
2019-04-20T04:29:12.274Z,0
2019-04-20T04:31:25.762Z,0
2019-04-20T04:34:42.881Z,0
2019-04-20T04:36:20.623Z,0
2019-04-20T04:38:31.403Z,0
2019-04-20T04:41:01.731Z,0
2019-04-20T04:43:31.441Z,0
2019-04-20T04:44:59.612Z,5
2019-04-20T04:45:33.605Z,5
2019-04-20T04:46:14.352Z,5
2019-04-20T04:47:22.174Z,5
2019-04-20T04:48:38.755Z,5
2019-04-20T04:49:55.089Z,5
2019-04-20T04:50:43.471Z,5
2019-04-20T04:52:00.987Z,5
2019-04-20T04:53:06.284Z,10
2019-04-20T04:54:27.814Z,10
2019-04-20T04:55:47.601Z,15
2019-04-20T04:56:27.351Z,15
2019-04-20T04:57:03.576Z,15
2019-04-20T04:58:02.554Z,15
2019-04-20T04:59:02.664Z,15
2019-04-20T05:00:02.035Z,15
2019-04-20T05:01:30.542Z,15
2019-04-20T05:02:09.590Z,10
2019-04-20T05:04:39.869Z,10
2019-04-20T05:06:47.905Z,10
2019-04-20T05:08:18.613Z,10
2019-04-20T05:09:05.768Z,15
2019-04-20T05:09:35.669Z,15
2019-04-20T05:10:33.131Z,15
2019-04-20T05:11:35.387Z,20
2019-04-20T05:12:44.391Z,20
2019-04-20T05:14:09.029Z,20
2019-04-20T05:15:46.027Z,25
2019-04-20T05:17:39.131Z,25
2019-04-20T05:20:02.004Z,25
2019-04-20T05:22:24.100Z,25
2019-04-20T05:24:07.053Z,25
2019-04-20T05:26:24.868Z,20
2019-04-20T05:28:27.242Z,15
2019-04-20T05:29:31.639Z,15
2019-04-20T05:29:49.264Z,15
2019-04-20T05:31:10.120Z,15
2019-04-20T05:32:29.371Z,15
2019-04-20T05:33:48.358Z,15
2019-04-20T05:36:17.284Z,15
2019-04-20T05:38:54.102Z,15
2019-04-20T05:41:06.904Z,15
2019-04-20T05:43:20.372Z,15
2019-04-20T05:45:20.410Z,15
2019-04-20T05:47:26.412Z,15
2019-04-20T05:49:39.628Z,15
2019-04-20T05:51:43.088Z,15
2019-04-20T05:54:25.009Z,15
2019-04-20T05:56:45.348Z,15
2019-04-20T05:59:14.808Z,15
2019-04-20T06:01:37.788Z,15
2019-04-20T06:04:01.461Z,15
2019-04-20T06:06:48.950Z,20
2019-04-20T06:09:27.364Z,20
2019-04-20T06:12:02.538Z,20
2019-04-20T06:13:56.823Z,20
2019-04-20T06:15:27.363Z,20
2019-04-20T06:17:43.163Z,20
2019-04-20T06:20:19.209Z,20
2019-04-20T06:23:03.018Z,20
2019-04-20T06:26:18.997Z,20
2019-04-20T06:28:42.293Z,20
2019-04-20T06:30:23.760Z,20
2019-04-20T06:32:50.634Z,20
2019-04-20T06:36:00.466Z,20
2019-04-20T06:38:48.015Z,20
2019-04-20T06:41:50.338Z,20
2019-04-20T06:44:22.725Z,20
2019-04-20T06:47:02.582Z,20
2019-04-20T06:49:56.261Z,20
2019-04-20T06:52:15.119Z,20
2019-04-20T06:54:15.492Z,20
2019-04-20T06:56:40.613Z,20
2019-04-20T06:59:37.419Z,20
2019-04-20T07:02:10.998Z,20
2019-04-20T07:04:59.184Z,20
2019-04-20T07:07:43.019Z,20
2019-04-20T07:10:37.169Z,20
2019-04-20T07:12:49.193Z,20
2019-04-20T07:14:09.850Z,20
2019-04-20T07:15:46.108Z,20
2019-04-20T07:18:15.518Z,20
2019-04-20T07:20:23.289Z,20
2019-04-20T07:23:26.272Z,20
2019-04-20T07:26:22.059Z,20
2019-04-20T07:28:58.657Z,20
2019-04-20T07:31:22.597Z,20
2019-04-20T07:33:46.177Z,20
2019-04-20T07:35:55.748Z,20
2019-04-20T07:39:06.951Z,20
2019-04-20T07:41:32.724Z,20
2019-04-20T07:44:17.952Z,20
2019-04-20T07:47:40.194Z,20
2019-04-20T07:49:49.477Z,20
2019-04-20T07:51:18.126Z,20
2019-04-20T07:51:52.553Z,20
2019-04-20T07:53:59.224Z,20
2019-04-20T07:56:58.397Z,20
2019-04-20T07:58:35.630Z,20
2019-04-20T08:00:13.247Z,20
2019-04-20T08:02:57.086Z,20
2019-04-20T08:05:14.816Z,20
2019-04-20T08:06:24.713Z,20
2019-04-20T08:07:12.679Z,20
2019-04-20T08:08:56.926Z,20
2019-04-20T08:10:07.736Z,20
2019-04-20T08:12:31.144Z,20
2019-04-20T08:15:36.233Z,20
2019-04-20T08:18:39.816Z,20
2019-04-20T08:20:57.467Z,20
2019-04-20T08:23:22.874Z,20
2019-04-20T08:25:27.472Z,20
2019-04-20T08:26:38.850Z,20
2019-04-20T08:27:19.761Z,20
2019-04-20T08:27:56.968Z,20
2019-04-20T08:30:01.724Z,20
2019-04-20T08:31:52.824Z,20
2019-04-20T08:34:11.496Z,20
2019-04-20T08:36:38.698Z,20
2019-04-20T08:39:44.613Z,20
2019-04-20T08:41:29.534Z,20
2019-04-20T08:44:40.976Z,20
2019-04-20T08:47:27.076Z,20
2019-04-20T08:49:48.996Z,20
2019-04-20T08:52:46.329Z,20
2019-04-20T08:54:57.571Z,20
2019-04-20T08:56:28.983Z,20
2019-04-20T08:57:07.110Z,20
2019-04-20T08:57:42.814Z,20
2019-04-20T08:58:41.511Z,20
2019-04-20T08:59:51.026Z,20
2019-04-20T09:01:21.396Z,20
2019-04-20T09:01:48.906Z,20
2019-04-20T09:03:09.793Z,20
2019-04-20T09:04:36.990Z,20
2019-04-20T09:05:48.651Z,20
2019-04-20T09:07:08.222Z,20
2019-04-20T09:08:05.364Z,20
2019-04-20T09:10:00.141Z,20
2019-04-20T09:12:18.964Z,20
2019-04-20T09:13:47.646Z,20
2019-04-20T09:14:14.061Z,20
2019-04-20T09:15:01.751Z,20
2019-04-20T09:16:01.987Z,20
2019-04-20T09:17:39.573Z,20
2019-04-20T09:18:47.136Z,20
2019-04-20T09:19:46.561Z,20
2019-04-20T09:20:58.824Z,20
2019-04-20T09:22:11.971Z,20
2019-04-20T09:23:50.385Z,20
2019-04-20T09:26:31.919Z,20
2019-04-20T09:27:53.894Z,20
2019-04-20T09:29:19.406Z,20
2019-04-20T09:30:58.975Z,20
2019-04-20T09:32:48.289Z,20
2019-04-20T09:35:05.888Z,20
2019-04-20T09:36:53.293Z,20
2019-04-20T09:38:52.477Z,20
2019-04-20T09:40:25.327Z,20
2019-04-20T09:42:04.271Z,20
2019-04-20T09:42:14.230Z,20
2019-04-20T09:43:20.126Z,20
2019-04-20T09:44:15.943Z,20
2019-04-20T09:45:55.325Z,20
2019-04-20T09:46:20.310Z,20
2019-04-20T09:47:35.537Z,20
2019-04-20T09:49:01.093Z,25
2019-04-20T09:50:27.137Z,20
2019-04-20T09:52:28.828Z,25
2019-04-20T09:54:01.574Z,25
2019-04-20T09:55:52.801Z,25
2019-04-20T09:57:53.888Z,25
2019-04-20T09:59:42.710Z,25
2019-04-20T10:01:27.988Z,25
2019-04-20T10:02:24.637Z,25
2019-04-20T10:02:48.806Z,25
2019-04-20T10:03:43.230Z,25
2019-04-20T10:04:42.312Z,25
2019-04-20T10:05:41.186Z,25
2019-04-20T10:06:47.936Z,25
2019-04-20T10:07:59.609Z,25
2019-04-20T10:09:07.430Z,25
2019-04-20T10:09:55.665Z,25
2019-04-20T10:10:56.029Z,25
2019-04-20T10:11:49.169Z,25
2019-04-20T10:12:42.274Z,25
2019-04-20T10:13:43.933Z,25
2019-04-20T10:14:43.184Z,25
2019-04-20T10:15:43.997Z,25
2019-04-20T10:16:44.026Z,25
2019-04-20T10:17:46.232Z,25
2019-04-20T10:19:00.508Z,25
2019-04-20T10:19:51.363Z,25
2019-04-20T10:20:49.791Z,25
2019-04-20T10:21:44.007Z,25
2019-04-20T10:22:44.893Z,25
2019-04-20T10:23:44.793Z,25
2019-04-20T10:24:47.123Z,25
2019-04-20T10:25:44.578Z,25
2019-04-20T10:26:43.136Z,25
2019-04-20T10:27:47.400Z,25
2019-04-20T10:28:43.514Z,25
2019-04-20T10:29:43.757Z,25
2019-04-20T10:30:44.391Z,25
2019-04-20T10:32:12.411Z,25
2019-04-20T10:32:59.585Z,25
2019-04-20T10:33:43.691Z,25
2019-04-20T10:34:44.272Z,25
2019-04-20T10:35:41.884Z,25
2019-04-20T10:36:43.454Z,25
2019-04-20T10:37:42.471Z,25
2019-04-20T10:38:46.455Z,25
2019-04-20T10:39:42.914Z,25
2019-04-20T10:41:45.078Z,25
2019-04-20T10:42:10.353Z,25
2019-04-20T10:43:03.078Z,25
2019-04-20T10:43:59.119Z,25
2019-04-20T10:45:07.028Z,25
2019-04-20T10:46:00.295Z,25
2019-04-20T10:46:58.996Z,25
2019-04-20T10:47:59.347Z,25
2019-04-20T10:49:13.170Z,25
2019-04-20T10:50:01.398Z,25
2019-04-20T10:51:00.977Z,25
2019-04-20T10:52:01.700Z,25
2019-04-20T10:53:02.070Z,25
2019-04-20T10:54:00.314Z,25
2019-04-20T10:55:00.536Z,25
2019-04-20T10:56:01.217Z,25
2019-04-20T10:57:01.402Z,25
2019-04-20T10:58:00.029Z,25
2019-04-20T10:59:01.391Z,25
2019-04-20T11:00:01.585Z,25
2019-04-20T11:01:02.083Z,25
2019-04-20T11:02:01.499Z,25
2019-04-20T11:03:01.637Z,25
2019-04-20T11:03:59.212Z,25
2019-04-20T11:04:59.533Z,25
2019-04-20T11:06:02.584Z,25
2019-04-20T11:07:00.700Z,25
2019-04-20T11:07:59.445Z,25
2019-04-20T11:08:58.714Z,25
2019-04-20T11:10:50.706Z,25
2019-04-20T11:11:35.725Z,25
2019-04-20T11:12:04.680Z,25
2019-04-20T11:13:03.572Z,25
2019-04-20T11:14:24.562Z,25
2019-04-20T11:15:03.387Z,25
2019-04-20T11:16:02.495Z,25
2019-04-20T11:17:02.731Z,25
2019-04-20T11:18:03.688Z,25
2019-04-20T11:19:03.452Z,25
2019-04-20T11:20:03.710Z,25
2019-04-20T11:21:03.862Z,30
2019-04-20T11:22:02.153Z,30
2019-04-20T11:23:04.675Z,30
2019-04-20T11:24:04.481Z,30
2019-04-20T11:25:04.598Z,30
2019-04-20T11:26:04.590Z,30
2019-04-20T11:27:04.426Z,30
2019-04-20T11:28:04.250Z,30
2019-04-20T11:29:04.501Z,30
2019-04-20T11:30:04.295Z,30
2019-04-20T11:31:04.374Z,30
2019-04-20T11:32:07.716Z,30
2019-04-20T11:33:04.298Z,30
2019-04-20T11:34:03.878Z,30
2019-04-20T11:35:19.830Z,30
2019-04-20T11:36:03.611Z,30
2019-04-20T11:37:03.701Z,30
2019-04-20T11:38:03.353Z,30
2019-04-20T11:39:02.911Z,30
2019-04-20T11:40:06.231Z,30
2019-04-20T11:41:37.660Z,30
2019-04-20T11:42:01.965Z,30
2019-04-20T11:43:03.719Z,30
2019-04-20T11:44:02.541Z,30
2019-04-20T11:45:02.861Z,30
2019-04-20T11:46:02.933Z,30
2019-04-20T11:47:03.452Z,30
2019-04-20T11:48:03.595Z,30
2019-04-20T11:49:03.782Z,30
2019-04-20T11:50:03.673Z,30
2019-04-20T11:51:03.836Z,30
2019-04-20T11:52:03.873Z,30
2019-04-20T11:53:03.864Z,30
2019-04-20T11:54:04.109Z,30
2019-04-20T11:55:04.304Z,30
2019-04-20T11:56:06.571Z,30
2019-04-20T11:57:03.593Z,30
2019-04-20T11:58:01.685Z,30
2019-04-20T11:59:02.945Z,30
2019-04-20T12:00:03.712Z,30
2019-04-20T12:01:36.523Z,30
2019-04-20T12:02:30.027Z,30
2019-04-20T12:03:39.101Z,30
2019-04-20T12:05:07.412Z,30
2019-04-20T12:06:00.901Z,30
2019-04-20T12:06:21.596Z,30
2019-04-20T12:07:22.604Z,30
2019-04-20T12:08:22.840Z,30
2019-04-20T12:09:22.033Z,30
2019-04-20T12:10:34.989Z,30
2019-04-20T12:12:27.168Z,35
2019-04-20T12:13:01.630Z,35
2019-04-20T12:13:43.047Z,35
2019-04-20T12:14:42.836Z,35
2019-04-20T12:15:45.940Z,35
2019-04-20T12:16:43.629Z,35
2019-04-20T12:17:43.866Z,35
2019-04-20T12:18:44.235Z,35
2019-04-20T12:19:45.890Z,35
2019-04-20T12:20:42.843Z,35
2019-04-20T12:21:42.148Z,35
2019-04-20T12:22:42.442Z,35
2019-04-20T12:23:42.674Z,35
2019-04-20T12:24:42.254Z,35
2019-04-20T12:25:50.548Z,35
2019-04-20T12:26:42.674Z,35
2019-04-20T12:27:53.750Z,35
2019-04-20T12:28:43.355Z,35
2019-04-20T12:29:41.179Z,35
2019-04-20T12:30:42.129Z,35
2019-04-20T12:31:55.136Z,35
2019-04-20T12:33:05.603Z,35
2019-04-20T12:33:42.593Z,35
2019-04-20T12:34:41.012Z,35
2019-04-20T12:35:42.728Z,35
2019-04-20T12:36:42.785Z,35
2019-04-20T12:37:43.030Z,35
2019-04-20T12:38:43.184Z,35
2019-04-20T12:39:42.833Z,35
2019-04-20T12:40:40.403Z,35
2019-04-20T12:42:09.521Z,35
2019-04-20T12:42:43.150Z,35
2019-04-20T12:43:43.691Z,40
2019-04-20T12:44:41.680Z,40
2019-04-20T12:45:42.529Z,40
2019-04-20T12:46:41.476Z,40
2019-04-20T12:47:41.385Z,40
2019-04-20T12:48:43.777Z,40
2019-04-20T12:49:43.789Z,40
2019-04-20T12:50:41.449Z,40
2019-04-20T12:52:08.405Z,40
2019-04-20T12:52:41.115Z,40
2019-04-20T12:53:40.774Z,40
2019-04-20T12:54:45.113Z,40
2019-04-20T12:55:41.494Z,40
2019-04-20T12:56:40.777Z,40
2019-04-20T12:57:41.032Z,40
2019-04-20T12:58:45.629Z,40
2019-04-20T12:59:44.184Z,40
2019-04-20T13:00:41.793Z,40
2019-04-20T13:01:41.900Z,40
2019-04-20T13:02:43.553Z,40
2019-04-20T13:03:41.444Z,40
2019-04-20T13:04:41.799Z,40
2019-04-20T13:05:41.004Z,40
2019-04-20T13:06:43.260Z,40
2019-04-20T13:08:04.529Z,40
2019-04-20T13:09:04.301Z,40
2019-04-20T13:09:41.496Z,40
2019-04-20T13:10:42.542Z,40
2019-04-20T13:12:11.952Z,40
2019-04-20T13:12:41.013Z,40
2019-04-20T13:13:41.343Z,40
2019-04-20T13:14:40.648Z,45
2019-04-20T13:15:42.376Z,45
2019-04-20T13:16:41.225Z,40
2019-04-20T13:17:40.450Z,40
2019-04-20T13:18:41.584Z,45
2019-04-20T13:19:42.100Z,45
2019-04-20T13:20:42.121Z,45
2019-04-20T13:21:43.363Z,45
2019-04-20T13:22:44.125Z,45
2019-04-20T13:23:43.042Z,45
2019-04-20T13:24:43.311Z,45
2019-04-20T13:25:43.026Z,45
2019-04-20T13:26:43.078Z,45
2019-04-20T13:27:43.241Z,45
2019-04-20T13:28:42.944Z,45
2019-04-20T13:29:46.031Z,45
2019-04-20T13:30:41.531Z,45
2019-04-20T13:31:42.355Z,45
2019-04-20T13:32:41.524Z,45
2019-04-20T13:33:41.693Z,45
2019-04-20T13:34:41.130Z,45
2019-04-20T13:35:41.108Z,45
2019-04-20T13:36:40.564Z,45
2019-04-20T13:37:48.116Z,45
2019-04-20T13:38:41.035Z,45
2019-04-20T13:39:41.126Z,45
2019-04-20T13:40:42.169Z,45
2019-04-20T13:41:42.339Z,45
2019-04-20T13:42:43.918Z,45
2019-04-20T13:43:41.524Z,45
2019-04-20T13:44:41.631Z,45
2019-04-20T13:45:42.623Z,45
2019-04-20T13:46:42.845Z,45
2019-04-20T13:47:41.379Z,45
2019-04-20T13:48:42.682Z,45
2019-04-20T13:49:42.956Z,45
2019-04-20T13:50:42.384Z,45
2019-04-20T13:51:44.562Z,45
2019-04-20T13:52:40.909Z,45
2019-04-20T13:53:41.029Z,45
2019-04-20T13:54:42.605Z,45
2019-04-20T13:55:43.576Z,45
2019-04-20T13:56:40.125Z,45
2019-04-20T13:57:42.280Z,50
2019-04-20T13:58:42.356Z,50
2019-04-20T13:59:40.354Z,50
2019-04-20T14:00:42.835Z,50
2019-04-20T14:01:41.706Z,50
2019-04-20T14:02:41.016Z,50
2019-04-20T14:03:41.187Z,50
2019-04-20T14:04:41.719Z,50
2019-04-20T14:05:40.945Z,50
2019-04-20T14:06:41.813Z,50
2019-04-20T14:07:42.102Z,50
2019-04-20T14:08:41.601Z,50
2019-04-20T14:09:41.868Z,50
2019-04-20T14:10:42.070Z,50
2019-04-20T14:11:41.630Z,50
2019-04-20T14:13:20.086Z,50
2019-04-20T14:14:08.301Z,50
2019-04-20T14:14:43.152Z,50
2019-04-20T14:15:43.328Z,50
2019-04-20T14:16:41.115Z,50
2019-04-20T14:17:43.315Z,50
2019-04-20T14:18:43.364Z,50
2019-04-20T14:19:43.471Z,50
2019-04-20T14:20:42.392Z,50
2019-04-20T14:21:41.721Z,50
2019-04-20T14:22:42.927Z,55
2019-04-20T14:23:41.447Z,55
2019-04-20T14:24:42.787Z,55
2019-04-20T14:25:42.572Z,55
2019-04-20T14:26:48.475Z,60
2019-04-20T14:27:42.739Z,70
2019-04-20T14:28:42.634Z,75
2019-04-20T14:29:43.100Z,85
2019-04-20T14:30:40.257Z,110
2019-04-20T14:31:40.000Z,420
2019-04-20T14:32:41.254Z,765
2019-04-20T14:33:41.694Z,805
2019-04-20T14:34:41.066Z,825
2019-04-20T14:35:41.160Z,840
2019-04-20T14:36:41.558Z,865
2019-04-20T14:37:41.881Z,825
2019-04-20T14:38:45.182Z,835
2019-04-20T14:39:42.911Z,825
2019-04-20T14:40:42.451Z,855
2019-04-20T14:41:42.245Z,850
2019-04-20T14:43:01.681Z,855
2019-04-20T14:43:45.096Z,835
2019-04-20T14:44:39.901Z,850
2019-04-20T14:45:40.917Z,910
2019-04-20T14:46:41.885Z,935
2019-04-20T14:47:42.018Z,960
2019-04-20T14:48:43.042Z,920
2019-04-20T14:49:42.898Z,895
2019-04-20T14:50:41.363Z,890
2019-04-20T14:51:41.568Z,890
2019-04-20T14:52:41.971Z,900
2019-04-20T14:53:41.284Z,900
2019-04-20T14:54:41.372Z,910
2019-04-20T14:55:41.582Z,915
2019-04-20T14:56:41.293Z,920
2019-04-20T14:57:41.404Z,920
2019-04-20T14:58:47.105Z,935
2019-04-20T14:59:41.323Z,930
2019-04-20T15:00:41.520Z,925
2019-04-20T15:01:42.682Z,905
2019-04-20T15:02:41.135Z,885
2019-04-20T15:03:49.813Z,855
2019-04-20T15:04:43.108Z,910
2019-04-20T15:05:41.470Z,900
2019-04-20T15:06:45.307Z,880
2019-04-20T15:07:42.307Z,880
2019-04-20T15:08:42.765Z,925
2019-04-20T15:09:45.123Z,900
2019-04-20T15:10:42.694Z,890
2019-04-20T15:11:46.878Z,890
2019-04-20T15:13:09.984Z,870
2019-04-20T15:13:42.310Z,860
2019-04-20T15:14:41.060Z,870
2019-04-20T15:15:41.476Z,875
2019-04-20T15:16:40.955Z,910
2019-04-20T15:17:41.771Z,900
2019-04-20T15:18:42.128Z,690
2019-04-20T15:19:41.593Z,665
2019-04-20T15:20:41.597Z,870
2019-04-20T15:21:41.989Z,505
2019-04-20T15:22:41.665Z,730
2019-04-20T15:23:41.873Z,650
2019-04-20T15:24:41.766Z,315
2019-04-20T15:25:40.196Z,660
2019-04-20T15:26:42.803Z,565
2019-04-20T15:27:46.219Z,485
2019-04-20T15:28:42.120Z,510
2019-04-20T15:29:40.592Z,720
2019-04-20T15:30:40.843Z,735
2019-04-20T15:31:41.917Z,665
2019-04-20T15:32:42.970Z,535
2019-04-20T15:33:43.125Z,795
2019-04-20T15:34:42.681Z,785
2019-04-20T15:35:44.083Z,770
2019-04-20T15:36:42.012Z,670
2019-04-20T15:37:42.430Z,665
2019-04-20T15:38:41.210Z,605
2019-04-20T15:39:41.316Z,405
2019-04-20T15:40:41.950Z,605
2019-04-20T15:41:41.562Z,680
2019-04-20T15:43:13.501Z,600
2019-04-20T15:43:41.747Z,485
2019-04-20T15:44:42.988Z,290
2019-04-20T15:45:43.322Z,355
2019-04-20T15:46:48.810Z,495
2019-04-20T15:47:40.805Z,575
2019-04-20T15:48:40.197Z,520
2019-04-20T15:49:42.305Z,450
2019-04-20T15:50:41.340Z,265
2019-04-20T15:51:39.991Z,495
2019-04-20T15:53:03.929Z,680
2019-04-20T15:53:42.097Z,750
2019-04-20T15:54:41.228Z,675
2019-04-20T15:55:53.327Z,645
2019-04-20T15:56:56.815Z,700
2019-04-20T15:57:45.405Z,635
2019-04-20T15:58:41.305Z,600
2019-04-20T15:59:40.688Z,545
2019-04-20T16:00:40.723Z,625
2019-04-20T16:01:41.337Z,595
2019-04-20T16:02:41.466Z,570
2019-04-20T16:03:41.625Z,570
2019-04-20T16:04:54.347Z,580
2019-04-20T16:05:40.872Z,575
2019-04-20T16:06:41.626Z,565
2019-04-20T16:08:09.121Z,525
2019-04-20T16:08:45.931Z,535
2019-04-20T16:09:44.194Z,320
2019-04-20T16:10:43.235Z,485
2019-04-20T16:11:44.716Z,480
2019-04-20T16:12:41.004Z,340
2019-04-20T16:14:01.622Z,420
2019-04-20T16:14:43.772Z,440
2019-04-20T16:15:40.581Z,400
2019-04-20T16:16:42.812Z,430
2019-04-20T16:17:59.160Z,410
2019-04-20T16:18:43.470Z,480
2019-04-20T16:20:22.968Z,480
2019-04-20T16:21:25.972Z,395
2019-04-20T16:21:46.186Z,340
2019-04-20T16:22:42.971Z,450
2019-04-20T16:23:43.169Z,400
2019-04-20T16:24:46.759Z,365
2019-04-20T16:25:41.669Z,395
2019-04-20T16:26:42.286Z,340
2019-04-20T16:27:41.541Z,330
2019-04-20T16:28:41.377Z,385
2019-04-20T16:29:42.163Z,275
2019-04-20T16:30:41.239Z,285
2019-04-20T16:31:43.801Z,290
2019-04-20T16:32:43.056Z,275
2019-04-20T16:33:42.191Z,325
2019-04-20T16:34:42.763Z,305
2019-04-20T16:35:40.447Z,295
2019-04-20T16:36:41.476Z,285
2019-04-20T16:37:42.355Z,280
2019-04-20T16:38:40.544Z,265
2019-04-20T16:39:42.760Z,250
2019-04-20T16:40:40.435Z,245
2019-04-20T16:41:42.294Z,240
2019-04-20T16:42:46.228Z,225
2019-04-20T16:43:55.348Z,215
2019-04-20T16:44:41.352Z,205
2019-04-20T16:45:41.518Z,185
2019-04-20T16:46:42.385Z,170
2019-04-20T16:47:42.346Z,155
2019-04-20T16:48:42.464Z,140
2019-04-20T16:49:41.518Z,140
2019-04-20T16:50:43.034Z,135
2019-04-20T16:51:40.861Z,130
2019-04-20T16:52:41.384Z,125
2019-04-20T16:53:45.642Z,120
2019-04-20T16:54:41.705Z,110
2019-04-20T16:55:42.773Z,100
2019-04-20T16:56:42.545Z,95
2019-04-20T16:57:39.847Z,95
2019-04-20T16:58:41.886Z,95
2019-04-20T17:00:03.086Z,90
2019-04-20T17:00:41.211Z,90
2019-04-20T17:01:40.630Z,85
2019-04-20T17:02:40.888Z,85
2019-04-20T17:04:22.501Z,80
2019-04-20T17:04:43.242Z,80
2019-04-20T17:05:41.169Z,75
2019-04-20T17:06:40.751Z,65
2019-04-20T17:07:42.803Z,45
2019-04-20T17:08:47.759Z,35
2019-04-20T17:09:40.474Z,30
2019-04-20T17:10:41.590Z,25
2019-04-20T17:11:41.868Z,25
2019-04-20T17:12:43.720Z,25
2019-04-20T17:14:04.016Z,25
2019-04-20T17:14:40.430Z,20
2019-04-20T17:15:39.808Z,20
2019-04-20T17:16:42.047Z,20
2019-04-20T17:17:40.567Z,20
2019-04-20T17:18:39.901Z,20
2019-04-20T17:19:42.275Z,20
2019-04-20T17:20:44.295Z,20
2019-04-20T17:21:44.420Z,20
2019-04-20T17:22:40.268Z,15
2019-04-20T17:23:46.972Z,15
2019-04-20T17:24:43.095Z,15
2019-04-20T17:25:39.987Z,15
2019-04-20T17:26:41.356Z,15
2019-04-20T17:27:41.862Z,15
2019-04-20T17:28:41.052Z,15
2019-04-20T17:29:50.063Z,15
2019-04-20T17:30:42.008Z,15
2019-04-20T17:31:43.015Z,15
2019-04-20T17:32:39.601Z,15
2019-04-20T17:34:35.795Z,10
2019-04-20T17:36:04.228Z,10
2019-04-20T17:36:42.328Z,10
2019-04-20T17:37:20.892Z,10
2019-04-20T17:38:22.923Z,10
2019-04-20T17:40:55.478Z,10
2019-04-20T17:42:39.947Z,10
2019-04-20T17:44:00.116Z,10
2019-04-20T17:45:28.129Z,10
2019-04-20T17:46:58.651Z,10
2019-04-20T17:48:42.598Z,5
2019-04-20T17:50:46.034Z,5
2019-04-20T17:53:08.560Z,5
2019-04-20T17:54:10.545Z,5
2019-04-20T17:54:27.669Z,5
2019-04-20T17:55:53.410Z,5
2019-04-20T17:56:26.328Z,5
2019-04-20T17:57:29.032Z,5
2019-04-20T17:58:43.865Z,5
2019-04-20T17:59:30.271Z,5
2019-04-20T18:00:51.866Z,5
2019-04-20T18:02:53.298Z,5
2019-04-20T18:05:55.648Z,0
2019-04-20T18:07:56.191Z,0
2019-04-20T18:10:06.542Z,0
2019-04-20T18:11:22.366Z,0
2019-04-20T18:12:07.305Z,0
2019-04-20T18:13:11.871Z,0
2019-04-20T18:13:49.348Z,0
2019-04-20T18:16:21.938Z,0
2019-04-20T18:18:18.578Z,0
2019-04-20T18:19:28.072Z,0
2019-04-20T18:19:46.888Z,0
2019-04-20T18:20:42.673Z,0
2019-04-20T18:21:45.935Z,0
2019-04-20T18:22:57.278Z,0
2019-04-20T18:23:56.129Z,0
2019-04-20T18:26:42.804Z,0
2019-04-20T18:28:32.239Z,0
2019-04-20T18:30:29.279Z,0
2019-04-20T18:31:11.329Z,0
2019-04-20T18:31:47.231Z,0
2019-04-20T18:32:47.316Z,0
2019-04-20T18:33:50.555Z,0